createdAt,value
2022-11-05T00:00:23.596Z,1009.47
2022-11-05T00:01:26.403Z,1009.46
2022-11-05T00:02:24.114Z,1009.46
2022-11-05T00:03:26.327Z,1009.48
2022-11-05T00:04:30.643Z,1009.49
2022-11-05T00:05:26.120Z,1009.48
2022-11-05T00:06:26.120Z,1009.49
2022-11-05T00:07:25.633Z,1009.49
2022-11-05T00:08:27.649Z,1009.48
2022-11-05T00:09:26.170Z,1009.48
2022-11-05T00:10:26.295Z,1009.50
2022-11-05T00:11:29.462Z,1009.49
2022-11-05T00:12:26.848Z,1009.50
2022-11-05T00:13:29.040Z,1009.50
2022-11-05T00:14:27.401Z,1009.49
2022-11-05T00:15:27.700Z,1009.53
2022-11-05T00:16:30.832Z,1009.54
2022-11-05T00:17:28.218Z,1009.56
2022-11-05T00:18:30.496Z,1009.55
2022-11-05T00:19:29.736Z,1009.55
2022-11-05T00:20:29.090Z,1009.59
2022-11-05T00:21:32.098Z,1009.58
2022-11-05T00:22:29.617Z,1009.56
2022-11-05T00:23:30.802Z,1009.59
2022-11-05T00:24:30.161Z,1009.55
2022-11-05T00:25:30.460Z,1009.60
2022-11-05T00:26:33.511Z,1009.62
2022-11-05T00:27:31.027Z,1009.57
2022-11-05T00:28:33.210Z,1009.59
2022-11-05T00:29:33.407Z,1009.64
2022-11-05T00:30:31.892Z,1009.69
2022-11-05T00:31:32.205Z,1009.70
2022-11-05T00:32:32.487Z,1009.75
2022-11-05T00:33:34.677Z,1009.71
2022-11-05T00:34:33.056Z,1009.69
2022-11-05T00:35:33.361Z,1009.72
2022-11-05T00:36:33.650Z,1009.71
2022-11-05T00:37:35.840Z,1009.72
2022-11-05T00:38:34.211Z,1009.67
2022-11-05T00:39:36.404Z,1009.66
2022-11-05T00:40:34.767Z,1009.67
2022-11-05T00:41:35.094Z,1009.65
2022-11-05T00:42:35.382Z,1009.72
2022-11-05T00:43:37.570Z,1009.70
2022-11-05T00:44:37.749Z,1009.76
2022-11-05T00:45:36.264Z,1009.76
2022-11-05T00:46:36.550Z,1009.73
2022-11-05T00:47:38.734Z,1009.68
2022-11-05T00:48:37.105Z,1009.63
2022-11-05T00:49:39.285Z,1009.64
2022-11-05T00:50:37.664Z,1009.61
2022-11-05T00:51:40.803Z,1009.67
2022-11-05T00:52:38.190Z,1009.61
2022-11-05T00:53:40.370Z,1009.62
2022-11-05T00:54:38.816Z,1009.62
2022-11-05T00:55:38.993Z,1009.57
2022-11-05T00:56:41.173Z,1009.61
2022-11-05T00:57:39.544Z,1009.60
2022-11-05T00:58:42.687Z,1009.59
2022-11-05T00:59:43.576Z,1009.58
2022-11-05T01:00:41.154Z,1009.56
2022-11-05T01:01:43.621Z,1009.58
2022-11-05T01:02:41.817Z,1009.54
2022-11-05T01:03:45.071Z,1009.58
2022-11-05T01:04:44.406Z,1009.58
2022-11-05T01:05:42.723Z,1009.57
2022-11-05T01:06:44.074Z,1009.61
2022-11-05T01:07:43.287Z,1009.60
2022-11-05T01:08:44.510Z,1009.62
2022-11-05T01:09:43.839Z,1009.64
2022-11-05T01:10:46.901Z,1009.58
2022-11-05T01:11:45.129Z,1009.63
2022-11-05T01:12:43.741Z,1009.63
2022-11-05T01:13:44.049Z,1009.67
2022-11-05T01:14:47.180Z,1009.62
2022-11-05T01:15:44.640Z,1009.63
2022-11-05T01:16:44.812Z,1009.65
2022-11-05T01:17:45.925Z,1009.64
2022-11-05T01:18:47.301Z,1009.63
2022-11-05T01:19:46.510Z,1009.67
2022-11-05T01:20:48.824Z,1009.66
2022-11-05T01:21:48.049Z,1009.65
2022-11-05T01:22:46.543Z,1009.66
2022-11-05T01:23:46.845Z,1009.67
2022-11-05T01:24:47.138Z,1009.66
2022-11-05T01:25:50.809Z,1009.65
2022-11-05T01:26:49.506Z,1009.67
2022-11-05T01:27:48.007Z,1009.72
2022-11-05T01:28:48.352Z,1009.75
2022-11-05T01:29:50.480Z,1009.76
2022-11-05T01:30:50.722Z,1009.76
2022-11-05T01:31:52.390Z,1009.77
2022-11-05T01:32:51.040Z,1009.76
2022-11-05T01:33:51.728Z,1009.78
2022-11-05T01:34:50.116Z,1009.77
2022-11-05T01:35:53.268Z,1009.72
2022-11-05T01:36:52.490Z,1009.73
2022-11-05T01:37:52.680Z,1009.73
2022-11-05T01:38:52.868Z,1009.70
2022-11-05T01:39:53.559Z,1009.70
2022-11-05T01:40:55.214Z,1009.71
2022-11-05T01:41:53.231Z,1009.69
2022-11-05T01:42:54.419Z,1009.65
2022-11-05T01:43:54.634Z,1009.66
2022-11-05T01:44:54.814Z,1009.64
2022-11-05T01:45:55.954Z,1009.64
2022-11-05T01:46:55.693Z,1009.68
2022-11-05T01:47:55.871Z,1009.67
2022-11-05T01:49:01.785Z,1009.68
2022-11-05T01:49:55.571Z,1009.68
2022-11-05T01:50:56.771Z,1009.67
2022-11-05T01:51:56.133Z,1009.65
2022-11-05T01:52:55.373Z,1009.70
2022-11-05T01:53:57.559Z,1009.68
2022-11-05T01:54:56.644Z,1009.64
2022-11-05T01:55:59.583Z,1009.69
2022-11-05T01:56:56.485Z,1009.70
2022-11-05T01:57:58.673Z,1009.69
2022-11-05T01:58:58.860Z,1009.70
2022-11-05T01:59:57.381Z,1009.71
2022-11-05T02:01:01.045Z,1009.70
2022-11-05T02:01:59.062Z,1009.69
2022-11-05T02:02:58.256Z,1009.69
2022-11-05T02:04:00.403Z,1009.70
2022-11-05T02:04:58.773Z,1009.73
2022-11-05T02:06:01.925Z,1009.69
2022-11-05T02:07:01.174Z,1009.67
2022-11-05T02:07:59.540Z,1009.65
2022-11-05T02:08:59.842Z,1009.67
2022-11-05T02:10:00.135Z,1009.60
2022-11-05T02:11:03.308Z,1009.65
2022-11-05T02:12:01.831Z,1009.65
2022-11-05T02:13:00.938Z,1009.60
2022-11-05T02:14:03.112Z,1009.63
2022-11-05T02:15:01.485Z,1009.67
2022-11-05T02:16:04.637Z,1009.67
2022-11-05T02:17:02.160Z,1009.73
2022-11-05T02:18:02.293Z,1009.72
2022-11-05T02:19:04.484Z,1009.71
2022-11-05T02:20:02.852Z,1009.73
2022-11-05T02:21:04.099Z,1009.72
2022-11-05T02:22:04.462Z,1009.78
2022-11-05T02:23:03.806Z,1009.75
2022-11-05T02:24:05.986Z,1009.74
2022-11-05T02:25:04.362Z,1009.74
2022-11-05T02:26:04.718Z,1009.78
2022-11-05T02:27:04.895Z,1009.72
2022-11-05T02:28:07.085Z,1009.72
2022-11-05T02:29:05.471Z,1009.77
2022-11-05T02:30:05.832Z,1009.71
2022-11-05T02:31:06.819Z,1009.74
2022-11-05T02:32:07.301Z,1009.74
2022-11-05T02:33:08.796Z,1009.79
2022-11-05T02:34:06.775Z,1009.76
2022-11-05T02:35:09.033Z,1009.77
2022-11-05T02:36:10.125Z,1009.78
2022-11-05T02:37:07.636Z,1009.78
2022-11-05T02:38:07.941Z,1009.79
2022-11-05T02:39:08.230Z,1009.78
2022-11-05T02:40:10.415Z,1009.80
2022-11-05T02:41:10.755Z,1009.80
2022-11-05T02:42:09.129Z,1009.81
2022-11-05T02:43:09.743Z,1009.81
2022-11-05T02:44:11.612Z,1009.82
2022-11-05T02:45:11.800Z,1009.83
2022-11-05T02:46:12.297Z,1009.87
2022-11-05T02:47:14.191Z,1009.87
2022-11-05T02:48:12.868Z,1009.84
2022-11-05T02:49:11.140Z,1009.82
2022-11-05T02:50:14.753Z,1009.82
2022-11-05T02:51:13.552Z,1009.79
2022-11-05T02:52:14.491Z,1009.85
2022-11-05T02:53:12.664Z,1009.82
2022-11-05T02:54:12.715Z,1009.78
2022-11-05T02:55:14.910Z,1009.77
2022-11-05T02:56:14.289Z,1009.74
2022-11-05T02:57:13.784Z,1009.76
2022-11-05T02:58:13.777Z,1009.77
2022-11-05T02:59:17.395Z,1009.75
2022-11-05T03:00:14.290Z,1009.77
2022-11-05T03:01:15.528Z,1009.77
2022-11-05T03:02:15.972Z,1009.79
2022-11-05T03:03:17.072Z,1009.81
2022-11-05T03:04:17.260Z,1009.83
2022-11-05T03:05:17.461Z,1009.81
2022-11-05T03:06:19.083Z,1009.79
2022-11-05T03:07:17.427Z,1009.82
2022-11-05T03:08:18.668Z,1009.79
2022-11-05T03:09:18.862Z,1009.82
2022-11-05T03:10:19.048Z,1009.84
2022-11-05T03:11:21.732Z,1009.83
2022-11-05T03:12:19.016Z,1009.82
2022-11-05T03:13:18.273Z,1009.83
2022-11-05T03:14:19.518Z,1009.83
2022-11-05T03:15:20.753Z,1009.81
2022-11-05T03:16:22.122Z,1009.82
2022-11-05T03:17:19.773Z,1009.92
2022-11-05T03:18:19.615Z,1009.92
2022-11-05T03:19:19.976Z,1009.93
2022-11-05T03:20:20.142Z,1009.91
2022-11-05T03:21:22.320Z,1009.91
2022-11-05T03:22:20.681Z,1009.93
2022-11-05T03:23:20.990Z,1009.87
2022-11-05T03:24:21.281Z,1009.87
2022-11-05T03:25:21.584Z,1009.88
2022-11-05T03:26:24.816Z,1009.90
2022-11-05T03:27:23.993Z,1009.94
2022-11-05T03:28:23.175Z,1009.94
2022-11-05T03:29:24.370Z,1009.95
2022-11-05T03:30:25.028Z,1009.94
2022-11-05T03:31:25.241Z,1009.95
2022-11-05T03:32:25.391Z,1009.95
2022-11-05T03:33:25.686Z,1010.00
2022-11-05T03:34:25.760Z,1009.95
2022-11-05T03:35:26.502Z,1010.00
2022-11-05T03:36:26.718Z,1010.02
2022-11-05T03:37:26.905Z,1010.00
2022-11-05T03:38:27.073Z,1010.01
2022-11-05T03:39:27.775Z,1010.03
2022-11-05T03:40:27.954Z,1010.04
2022-11-05T03:41:29.121Z,1009.99
2022-11-05T03:42:28.352Z,1010.04
2022-11-05T03:43:29.107Z,1010.02
2022-11-05T03:44:27.385Z,1010.04
2022-11-05T03:45:27.675Z,1010.01
2022-11-05T03:46:30.806Z,1009.99
2022-11-05T03:47:30.042Z,1009.98
2022-11-05T03:48:28.700Z,1010.02
2022-11-05T03:49:28.892Z,1009.97
2022-11-05T03:50:29.255Z,1009.99
2022-11-05T03:51:32.165Z,1010.00
2022-11-05T03:52:31.563Z,1010.00
2022-11-05T03:53:29.935Z,1010.04
2022-11-05T03:54:30.236Z,1010.01
2022-11-05T03:55:30.533Z,1010.05
2022-11-05T03:56:34.167Z,1010.04
2022-11-05T03:57:32.920Z,1010.05
2022-11-05T03:58:31.411Z,1010.08
2022-11-05T03:59:31.709Z,1010.11
2022-11-05T04:00:31.993Z,1010.09
2022-11-05T04:01:35.785Z,1010.13
2022-11-05T04:02:32.704Z,1010.14
2022-11-05T04:03:34.744Z,1010.16
2022-11-05T04:04:34.923Z,1010.21
2022-11-05T04:05:35.115Z,1010.20
2022-11-05T04:06:35.810Z,1010.18
2022-11-05T04:07:35.976Z,1010.19
2022-11-05T04:08:34.459Z,1010.22
2022-11-05T04:09:36.651Z,1010.22
2022-11-05T04:10:35.006Z,1010.22
2022-11-05T04:11:37.189Z,1010.24
2022-11-05T04:12:35.568Z,1010.22
2022-11-05T04:13:37.737Z,1010.23
2022-11-05T04:14:37.949Z,1010.24
2022-11-05T04:15:37.287Z,1010.26
2022-11-05T04:16:38.615Z,1010.26
2022-11-05T04:17:36.992Z,1010.25
2022-11-05T04:18:39.176Z,1010.25
2022-11-05T04:19:39.490Z,1010.27
2022-11-05T04:20:37.888Z,1010.32
2022-11-05T04:21:40.084Z,1010.27
2022-11-05T04:22:38.446Z,1010.27
2022-11-05T04:23:38.749Z,1010.26
2022-11-05T04:24:39.050Z,1010.26
2022-11-05T04:25:41.231Z,1010.24
2022-11-05T04:26:41.419Z,1010.30
2022-11-05T04:27:41.608Z,1010.29
2022-11-05T04:28:41.808Z,1010.29
2022-11-05T04:29:40.548Z,1010.23
2022-11-05T04:30:42.741Z,1010.27
2022-11-05T04:31:41.220Z,1010.25
2022-11-05T04:32:41.397Z,1010.27
2022-11-05T04:33:41.750Z,1010.25
2022-11-05T04:34:43.863Z,1010.27
2022-11-05T04:35:42.251Z,1010.23
2022-11-05T04:36:43.511Z,1010.22
2022-11-05T04:37:42.871Z,1010.24
2022-11-05T04:38:43.162Z,1010.22
2022-11-05T04:39:45.455Z,1010.21
2022-11-05T04:40:45.585Z,1010.22
2022-11-05T04:41:46.493Z,1010.24
2022-11-05T04:42:44.372Z,1010.25
2022-11-05T04:43:44.672Z,1010.28
2022-11-05T04:44:44.975Z,1010.25
2022-11-05T04:45:48.109Z,1010.29
2022-11-05T04:46:47.476Z,1010.29
2022-11-05T04:47:46.764Z,1010.28
2022-11-05T04:48:46.923Z,1010.26
2022-11-05T04:49:47.077Z,1010.26
2022-11-05T04:50:49.112Z,1010.28
2022-11-05T04:51:48.835Z,1010.27
2022-11-05T04:52:49.727Z,1010.25
2022-11-05T04:53:48.466Z,1010.25
2022-11-05T04:54:49.690Z,1010.29
2022-11-05T04:55:49.886Z,1010.31
2022-11-05T04:56:49.846Z,1010.31
2022-11-05T04:57:49.648Z,1010.29
2022-11-05T04:58:49.798Z,1010.35
2022-11-05T04:59:51.172Z,1010.35
2022-11-05T05:00:49.582Z,1010.35
2022-11-05T05:01:51.968Z,1010.39
2022-11-05T05:02:51.649Z,1010.38
2022-11-05T05:03:52.444Z,1010.36
2022-11-05T05:04:51.756Z,1010.38
2022-11-05T05:05:53.906Z,1010.40
2022-11-05T05:06:52.354Z,1010.38
2022-11-05T05:07:51.716Z,1010.39
2022-11-05T05:08:52.956Z,1010.33
2022-11-05T05:09:54.202Z,1010.37
2022-11-05T05:10:53.504Z,1010.41
2022-11-05T05:11:54.826Z,1010.36
2022-11-05T05:12:53.190Z,1010.39
2022-11-05T05:13:55.377Z,1010.37
2022-11-05T05:14:55.727Z,1010.34
2022-11-05T05:15:54.091Z,1010.33
2022-11-05T05:16:57.757Z,1010.32
2022-11-05T05:17:56.510Z,1010.33
2022-11-05T05:18:56.693Z,1010.33
2022-11-05T05:19:56.885Z,1010.35
2022-11-05T05:20:57.536Z,1010.32
2022-11-05T05:21:58.595Z,1010.38
2022-11-05T05:22:57.947Z,1010.40
2022-11-05T05:23:56.568Z,1010.37
2022-11-05T05:24:58.750Z,1010.39
2022-11-05T05:25:57.126Z,1010.39
2022-11-05T05:26:58.384Z,1010.35
2022-11-05T05:27:57.727Z,1010.35
2022-11-05T05:28:58.047Z,1010.36
2022-11-05T05:30:00.236Z,1010.36
2022-11-05T05:30:58.856Z,1010.37
2022-11-05T05:32:02.404Z,1010.40
2022-11-05T05:32:59.175Z,1010.43
2022-11-05T05:34:01.371Z,1010.40
2022-11-05T05:35:01.559Z,1010.40
2022-11-05T05:36:04.591Z,1010.42
2022-11-05T05:37:03.900Z,1010.44
2022-11-05T05:38:00.670Z,1010.45
2022-11-05T05:39:02.866Z,1010.48
2022-11-05T05:40:03.063Z,1010.48
2022-11-05T05:41:03.245Z,1010.50
2022-11-05T05:42:03.461Z,1010.52
2022-11-05T05:43:02.197Z,1010.50
2022-11-05T05:44:03.475Z,1010.52
2022-11-05T05:45:04.697Z,1010.52
2022-11-05T05:46:03.037Z,1010.53
2022-11-05T05:47:06.699Z,1010.52
2022-11-05T05:48:03.599Z,1010.57
2022-11-05T05:49:11.249Z,1010.58
2022-11-05T05:50:06.983Z,1010.60
2022-11-05T05:51:04.478Z,1010.61
2022-11-05T05:52:07.635Z,1010.58
2022-11-05T05:53:05.018Z,1010.59
2022-11-05T05:54:07.212Z,1010.55
2022-11-05T05:55:07.488Z,1010.56
2022-11-05T05:56:05.862Z,1010.57
2022-11-05T05:57:07.126Z,1010.56
2022-11-05T05:58:06.485Z,1010.56
2022-11-05T05:59:06.769Z,1010.53
2022-11-05T06:00:09.913Z,1010.54
2022-11-05T06:01:07.315Z,1010.55
2022-11-05T06:02:10.532Z,1010.55
2022-11-05T06:03:08.050Z,1010.56
2022-11-05T06:04:08.231Z,1010.56
2022-11-05T06:05:10.409Z,1010.58
2022-11-05T06:06:08.780Z,1010.58
2022-11-05T06:07:10.592Z,1010.63
2022-11-05T06:08:09.337Z,1010.62
2022-11-05T06:09:11.524Z,1010.63
2022-11-05T06:10:11.782Z,1010.66
2022-11-05T06:11:11.100Z,1010.63
2022-11-05T06:12:13.250Z,1010.70
2022-11-05T06:13:12.724Z,1010.66
2022-11-05T06:14:11.099Z,1010.70
2022-11-05T06:15:13.262Z,1010.69
2022-11-05T06:16:11.757Z,1010.68
2022-11-05T06:17:15.388Z,1010.78
2022-11-05T06:18:12.169Z,1010.76
2022-11-05T06:19:14.352Z,1010.72
2022-11-05T06:20:12.728Z,1010.77
2022-11-05T06:21:13.053Z,1010.74
2022-11-05T06:22:15.335Z,1010.72
2022-11-05T06:23:13.871Z,1010.79
2022-11-05T06:24:15.925Z,1010.82
2022-11-05T06:25:14.313Z,1010.82
2022-11-05T06:26:14.640Z,1010.78
2022-11-05T06:27:17.427Z,1010.79
2022-11-05T06:28:15.206Z,1010.79
2022-11-05T06:29:15.528Z,1010.79
2022-11-05T06:30:17.720Z,1010.80
2022-11-05T06:31:16.107Z,1010.81
2022-11-05T06:32:18.754Z,1010.86
2022-11-05T06:33:16.693Z,1010.83
2022-11-05T06:34:16.896Z,1010.87
2022-11-05T06:35:17.225Z,1010.91
2022-11-05T06:36:19.401Z,1010.91
2022-11-05T06:37:20.100Z,1010.92
2022-11-05T06:38:18.135Z,1010.90
2022-11-05T06:39:19.365Z,1010.91
2022-11-05T06:40:19.784Z,1010.91
2022-11-05T06:41:20.934Z,1010.94
2022-11-05T06:42:22.615Z,1010.95
2022-11-05T06:43:19.653Z,1010.91
2022-11-05T06:44:19.974Z,1010.90
2022-11-05T06:45:20.305Z,1010.89
2022-11-05T06:46:21.513Z,1010.92
2022-11-05T06:47:23.817Z,1010.95
2022-11-05T06:48:24.004Z,1010.95
2022-11-05T06:49:21.557Z,1010.94
2022-11-05T06:50:22.913Z,1010.90
2022-11-05T06:51:23.072Z,1010.93
2022-11-05T06:52:24.426Z,1010.90
2022-11-05T06:53:24.619Z,1010.95
2022-11-05T06:54:24.809Z,1010.97
2022-11-05T06:55:24.232Z,1010.99
2022-11-05T06:56:24.581Z,1011.20
2022-11-05T06:57:25.800Z,1011.14
2022-11-05T06:58:25.981Z,1011.14
2022-11-05T06:59:24.397Z,1011.11
2022-11-05T07:00:24.778Z,1011.17
2022-11-05T07:01:26.238Z,1011.15
2022-11-05T07:02:28.173Z,1011.13
2022-11-05T07:03:28.738Z,1011.10
2022-11-05T07:04:25.925Z,1011.09
2022-11-05T07:05:28.116Z,1011.10
2022-11-05T07:06:26.406Z,1011.06
2022-11-05T07:07:27.688Z,1010.99
2022-11-05T07:08:28.934Z,1011.04
2022-11-05T07:09:29.130Z,1011.08
2022-11-05T07:10:28.638Z,1011.06
2022-11-05T07:11:28.400Z,1011.06
2022-11-05T07:12:29.292Z,1011.07
2022-11-05T07:13:28.583Z,1011.04
2022-11-05T07:14:28.788Z,1011.06
2022-11-05T07:15:29.993Z,1011.02
2022-11-05T07:16:29.400Z,1011.04
2022-11-05T07:17:31.552Z,1011.00
2022-11-05T07:18:29.835Z,1011.04
2022-11-05T07:19:30.182Z,1011.03
2022-11-05T07:20:34.216Z,1011.05
2022-11-05T07:21:30.743Z,1011.06
2022-11-05T07:22:31.924Z,1011.06
2022-11-05T07:23:33.105Z,1011.01
2022-11-05T07:24:31.721Z,1010.99
2022-11-05T07:25:31.935Z,1011.05
2022-11-05T07:26:34.685Z,1011.05
2022-11-05T07:27:34.461Z,1011.03
2022-11-05T07:28:32.866Z,1011.07
2022-11-05T07:29:33.206Z,1011.11
2022-11-05T07:30:33.543Z,1011.15
2022-11-05T07:31:35.341Z,1011.14
2022-11-05T07:32:36.068Z,1011.07
2022-11-05T07:33:36.745Z,1011.11
2022-11-05T07:34:34.637Z,1011.09
2022-11-05T07:35:36.008Z,1011.11
2022-11-05T07:36:35.269Z,1011.10
2022-11-05T07:37:37.463Z,1011.08
2022-11-05T07:38:35.864Z,1011.09
2022-11-05T07:39:36.208Z,1011.11
2022-11-05T07:40:36.687Z,1011.14
2022-11-05T07:41:38.768Z,1011.14
2022-11-05T07:42:38.942Z,1011.15
2022-11-05T07:43:37.474Z,1011.17
2022-11-05T07:44:37.815Z,1011.16
2022-11-05T07:45:40.000Z,1011.14
2022-11-05T07:46:38.409Z,1011.17
2022-11-05T07:47:40.601Z,1011.17
2022-11-05T07:48:39.018Z,1011.19
2022-11-05T07:49:39.361Z,1011.20
2022-11-05T07:50:39.698Z,1011.17
2022-11-05T07:51:43.573Z,1011.18
2022-11-05T07:52:42.271Z,1011.20
2022-11-05T07:53:45.274Z,1011.21
2022-11-05T07:54:40.971Z,1011.24
2022-11-05T07:55:43.162Z,1011.27
2022-11-05T07:56:41.580Z,1011.25
2022-11-05T07:57:43.784Z,1011.22
2022-11-05T07:58:42.214Z,1011.18
2022-11-05T07:59:44.365Z,1011.20
2022-11-05T08:00:44.716Z,1011.19
2022-11-05T08:01:43.260Z,1011.15
2022-11-05T08:02:45.330Z,1011.19
2022-11-05T08:03:43.645Z,1011.24
2022-11-05T08:04:45.785Z,1011.17
2022-11-05T08:05:46.223Z,1011.19
2022-11-05T08:06:44.480Z,1011.21
2022-11-05T08:07:46.674Z,1011.18
2022-11-05T08:08:45.087Z,1011.16
2022-11-05T08:09:45.428Z,1011.18
2022-11-05T08:10:47.626Z,1011.17
2022-11-05T08:11:47.835Z,1011.22
2022-11-05T08:12:49.469Z,1011.18
2022-11-05T08:13:46.674Z,1011.20
2022-11-05T08:14:46.987Z,1011.15
2022-11-05T08:15:49.163Z,1011.21
2022-11-05T08:16:47.575Z,1011.19
2022-11-05T08:17:48.963Z,1011.18
2022-11-05T08:18:48.254Z,1011.19
2022-11-05T08:19:48.468Z,1011.22
2022-11-05T08:20:48.835Z,1011.23
2022-11-05T08:21:51.034Z,1011.18
2022-11-05T08:22:49.323Z,1011.15
2022-11-05T08:23:49.669Z,1011.15
2022-11-05T08:24:50.004Z,1011.17
2022-11-05T08:25:50.376Z,1011.20
2022-11-05T08:26:52.594Z,1011.18
2022-11-05T08:27:53.680Z,1011.15
2022-11-05T08:28:51.235Z,1011.19
2022-11-05T08:29:54.878Z,1011.27
2022-11-05T08:30:52.742Z,1011.24
2022-11-05T08:31:53.154Z,1011.27
2022-11-05T08:32:54.310Z,1011.21
2022-11-05T08:33:57.136Z,1011.24
2022-11-05T08:34:55.919Z,1011.24
2022-11-05T08:35:53.354Z,1011.28
2022-11-05T08:36:57.001Z,1011.25
2022-11-05T08:37:53.819Z,1011.28
2022-11-05T08:38:56.008Z,1011.25
2022-11-05T08:39:54.320Z,1011.27
2022-11-05T08:40:57.958Z,1011.26
2022-11-05T08:41:55.777Z,1011.26
2022-11-05T08:42:56.157Z,1011.23
2022-11-05T08:43:56.355Z,1011.24
2022-11-05T08:44:56.710Z,1011.29
2022-11-05T08:45:57.940Z,1011.26
2022-11-05T08:46:57.202Z,1011.29
2022-11-05T08:47:58.441Z,1011.27
2022-11-05T08:48:58.632Z,1011.28
2022-11-05T08:49:58.013Z,1011.26
2022-11-05T08:50:59.239Z,1011.25
2022-11-05T08:51:59.591Z,1011.33
2022-11-05T08:52:57.892Z,1011.29
2022-11-05T08:54:00.091Z,1011.33
2022-11-05T08:55:00.272Z,1011.34
2022-11-05T08:55:59.483Z,1011.34
2022-11-05T08:56:59.978Z,1011.36
2022-11-05T08:57:59.313Z,1011.38
2022-11-05T08:58:59.538Z,1011.44
2022-11-05T09:00:01.736Z,1011.45
2022-11-05T09:01:04.973Z,1011.43
2022-11-05T09:02:00.541Z,1011.41
2022-11-05T09:03:02.482Z,1011.46
2022-11-05T09:04:00.908Z,1011.45
2022-11-05T09:05:01.234Z,1011.45
2022-11-05T09:06:01.476Z,1011.45
2022-11-05T09:07:05.120Z,1011.47
2022-11-05T09:08:03.855Z,1011.45
2022-11-05T09:09:02.279Z,1011.46
2022-11-05T09:10:04.462Z,1011.44
2022-11-05T09:11:02.765Z,1011.45
2022-11-05T09:12:12.415Z,1011.42
2022-11-05T09:13:05.769Z,1011.43
2022-11-05T09:14:03.451Z,1011.49
2022-11-05T09:15:03.690Z,1011.48
2022-11-05T09:16:03.927Z,1011.49
2022-11-05T09:17:07.585Z,1011.44
2022-11-05T09:18:04.393Z,1011.46
2022-11-05T09:19:06.584Z,1011.39
2022-11-05T09:20:04.884Z,1011.38
2022-11-05T09:21:05.115Z,1011.40
2022-11-05T09:22:07.390Z,1011.40
2022-11-05T09:23:05.682Z,1011.39
2022-11-05T09:24:05.923Z,1011.42
2022-11-05T09:25:07.907Z,1011.39
2022-11-05T09:26:08.087Z,1011.40
2022-11-05T09:27:09.121Z,1011.38
2022-11-05T09:28:09.937Z,1011.36
2022-11-05T09:29:13.190Z,1011.38
2022-11-05T09:30:10.537Z,1011.38
2022-11-05T09:31:09.872Z,1011.40
2022-11-05T09:32:10.180Z,1011.42
2022-11-05T09:33:10.531Z,1011.44
2022-11-05T09:34:08.858Z,1011.40
2022-11-05T09:35:11.051Z,1011.46
2022-11-05T09:36:09.337Z,1011.47
2022-11-05T09:37:12.132Z,1011.49
2022-11-05T09:38:11.729Z,1011.50
2022-11-05T09:39:10.255Z,1011.53
2022-11-05T09:40:12.487Z,1011.62
2022-11-05T09:41:12.627Z,1011.66
2022-11-05T09:42:13.797Z,1011.67
2022-11-05T09:43:13.302Z,1011.72
2022-11-05T09:44:11.731Z,1011.73
2022-11-05T09:45:12.066Z,1011.74
2022-11-05T09:46:12.408Z,1011.68
2022-11-05T09:47:13.602Z,1011.66
2022-11-05T09:48:14.949Z,1011.57
2022-11-05T09:49:15.107Z,1011.62
2022-11-05T09:50:13.639Z,1011.68
2022-11-05T09:51:16.836Z,1011.63
2022-11-05T09:52:15.322Z,1011.56
2022-11-05T09:53:16.501Z,1011.63
2022-11-05T09:54:16.689Z,1011.62
2022-11-05T09:55:15.227Z,1011.60
2022-11-05T09:56:15.573Z,1011.66
2022-11-05T09:57:17.765Z,1011.65
2022-11-05T09:58:18.110Z,1011.65
2022-11-05T09:59:16.511Z,1011.70
2022-11-05T10:00:17.091Z,1011.69
2022-11-05T10:01:19.646Z,1011.69
2022-11-05T10:02:19.304Z,1011.67
2022-11-05T10:03:19.418Z,1011.68
2022-11-05T10:04:17.847Z,1011.65
2022-11-05T10:05:18.116Z,1011.68
2022-11-05T10:06:18.303Z,1011.77
2022-11-05T10:07:20.544Z,1011.75
2022-11-05T10:08:20.691Z,1011.73
2022-11-05T10:09:19.220Z,1011.75
2022-11-05T10:10:19.563Z,1011.78
2022-11-05T10:11:19.898Z,1011.81
2022-11-05T10:12:20.240Z,1011.82
2022-11-05T10:13:22.448Z,1011.83
2022-11-05T10:14:20.863Z,1011.88
2022-11-05T10:15:21.082Z,1011.88
2022-11-05T10:16:21.423Z,1011.84
2022-11-05T10:17:23.601Z,1011.84
2022-11-05T10:18:22.006Z,1011.90
2022-11-05T10:19:22.355Z,1011.93
2022-11-05T10:20:24.571Z,1011.89
2022-11-05T10:21:44.356Z,1011.89
2022-11-05T10:22:27.136Z,1011.91
2022-11-05T10:23:23.579Z,1011.92
2022-11-05T10:24:23.920Z,1011.91
2022-11-05T10:25:24.258Z,1011.88
2022-11-05T10:26:24.595Z,1011.88
2022-11-05T10:27:27.736Z,1011.91
2022-11-05T10:28:25.154Z,1011.90
2022-11-05T10:29:28.299Z,1011.89
2022-11-05T10:30:26.630Z,1011.91
2022-11-05T10:31:31.505Z,1011.89
2022-11-05T10:32:29.208Z,1011.94
2022-11-05T10:33:27.362Z,1011.93
2022-11-05T10:34:26.763Z,1011.91
2022-11-05T10:35:27.109Z,1011.94
2022-11-05T10:36:28.354Z,1011.96
2022-11-05T10:37:29.638Z,1011.98
2022-11-05T10:38:28.057Z,1011.98
2022-11-05T10:39:28.276Z,1011.95
2022-11-05T10:40:28.617Z,1011.99
2022-11-05T10:41:30.914Z,1012.00
2022-11-05T10:42:31.149Z,1011.96
2022-11-05T10:43:31.340Z,1011.94
2022-11-05T10:44:29.752Z,1011.93
2022-11-05T10:45:30.094Z,1011.90
2022-11-05T10:46:31.235Z,1011.96
2022-11-05T10:47:32.676Z,1011.92
2022-11-05T10:48:33.091Z,1011.92
2022-11-05T10:49:32.996Z,1011.93
2022-11-05T10:50:31.667Z,1011.95
2022-11-05T10:51:32.811Z,1011.92
2022-11-05T10:52:34.158Z,1011.80
2022-11-05T10:53:32.455Z,1011.82
2022-11-05T10:54:32.684Z,1011.82
2022-11-05T10:55:33.881Z,1011.86
2022-11-05T10:56:35.741Z,1011.91
2022-11-05T10:57:36.420Z,1012.02
2022-11-05T10:58:33.845Z,1011.96
2022-11-05T10:59:34.189Z,1011.97
2022-11-05T11:00:35.377Z,1011.99
2022-11-05T11:01:35.854Z,1012.03
2022-11-05T11:02:36.904Z,1012.05
2022-11-05T11:03:37.044Z,1012.09
2022-11-05T11:04:38.186Z,1012.13
2022-11-05T11:05:37.422Z,1012.15
2022-11-05T11:06:38.631Z,1012.09
2022-11-05T11:07:38.344Z,1012.12
2022-11-05T11:08:36.751Z,1012.04
2022-11-05T11:09:37.094Z,1011.95
2022-11-05T11:10:37.430Z,1012.00
2022-11-05T11:11:38.755Z,1011.98
2022-11-05T11:12:41.254Z,1011.97
2022-11-05T11:13:40.189Z,1011.97
2022-11-05T11:14:38.580Z,1011.95
2022-11-05T11:15:40.823Z,1012.02
2022-11-05T11:16:39.275Z,1011.98
2022-11-05T11:17:41.417Z,1011.99
2022-11-05T11:18:40.437Z,1011.91
2022-11-05T11:19:40.140Z,1011.87
2022-11-05T11:20:40.429Z,1011.93
2022-11-05T11:21:44.046Z,1011.89
2022-11-05T11:22:42.774Z,1011.92
2022-11-05T11:23:41.194Z,1011.82
2022-11-05T11:24:43.369Z,1011.86
2022-11-05T11:25:43.527Z,1011.83
2022-11-05T11:26:44.645Z,1011.88
2022-11-05T11:27:42.314Z,1011.86
2022-11-05T11:28:44.507Z,1011.89
2022-11-05T11:29:49.103Z,1011.92
2022-11-05T11:30:43.266Z,1011.93
2022-11-05T11:31:45.487Z,1011.94
2022-11-05T11:32:45.647Z,1011.91
2022-11-05T11:33:45.831Z,1011.93
2022-11-05T11:34:44.477Z,1011.95
2022-11-05T11:35:46.681Z,1011.93
2022-11-05T11:36:45.342Z,1011.97
2022-11-05T11:37:46.370Z,1011.93
2022-11-05T11:38:45.705Z,1011.90
2022-11-05T11:39:47.848Z,1011.97
2022-11-05T11:40:46.267Z,1011.92
2022-11-05T11:41:48.530Z,1011.88
2022-11-05T11:42:47.799Z,1011.77
2022-11-05T11:43:47.088Z,1011.82
2022-11-05T11:44:49.268Z,1011.89
2022-11-05T11:45:47.571Z,1011.90
2022-11-05T11:46:48.777Z,1011.89
2022-11-05T11:47:48.083Z,1011.83
2022-11-05T11:48:48.319Z,1011.81
2022-11-05T11:49:50.080Z,1011.82
2022-11-05T11:50:50.760Z,1011.80
2022-11-05T11:51:50.355Z,1011.80
2022-11-05T11:52:49.482Z,1011.86
2022-11-05T11:53:49.725Z,1011.82
2022-11-05T11:54:49.942Z,1011.80
2022-11-05T11:55:52.138Z,1011.78
2022-11-05T11:56:51.413Z,1011.78
2022-11-05T11:57:52.665Z,1011.79
2022-11-05T11:58:50.958Z,1011.78
2022-11-05T12:00:52.419Z,1011.81
2022-11-05T12:01:54.693Z,1011.73
2022-11-05T12:02:53.904Z,1011.72
2022-11-05T12:03:53.279Z,1011.69
2022-11-05T12:04:52.559Z,1011.74
2022-11-05T12:05:52.920Z,1011.77
2022-11-05T12:06:56.568Z,1011.71
2022-11-05T12:07:53.387Z,1011.66
2022-11-05T12:09:00.574Z,1011.71
2022-11-05T12:09:54.954Z,1011.82